sensor_id;sensor_type;location;lat;lon;timestamp;P1;durP1;ratioP1;P2;durP2;ratioP2
19985;SDS011;10154;52.474;10.768;2022-12-10T00:07:54;35.57;;;10.33;;
19985;SDS011;10154;52.474;10.768;2022-12-10T00:10:20;35.00;;;11.30;;
19985;SDS011;10154;52.474;10.768;2022-12-10T00:12:45;31.87;;;10.43;;
19985;SDS011;10154;52.474;10.768;2022-12-10T00:15:11;28.87;;;9.93;;
19985;SDS011;10154;52.474;10.768;2022-12-10T00:17:36;33.07;;;10.67;;
19985;SDS011;10154;52.474;10.768;2022-12-10T00:20:02;31.40;;;10.13;;
19985;SDS011;10154;52.474;10.768;2022-12-10T00:22:27;33.07;;;11.03;;
19985;SDS011;10154;52.474;10.768;2022-12-10T00:24:53;35.87;;;11.30;;
19985;SDS011;10154;52.474;10.768;2022-12-10T00:27:18;31.33;;;10.77;;
19985;SDS011;10154;52.474;10.768;2022-12-10T00:29:43;38.33;;;11.60;;
19985;SDS011;10154;52.474;10.768;2022-12-10T00:32:09;36.67;;;11.90;;
19985;SDS011;10154;52.474;10.768;2022-12-10T00:34:34;29.80;;;9.80;;
19985;SDS011;10154;52.474;10.768;2022-12-10T00:37:00;31.73;;;10.87;;
19985;SDS011;10154;52.474;10.768;2022-12-10T00:39:25;33.20;;;10.53;;
19985;SDS011;10154;52.474;10.768;2022-12-10T00:41:51;38.03;;;11.97;;
19985;SDS011;10154;52.474;10.768;2022-12-10T00:44:16;36.70;;;11.40;;
19985;SDS011;10154;52.474;10.768;2022-12-10T00:46:41;37.00;;;11.33;;
19985;SDS011;10154;52.474;10.768;2022-12-10T00:49:07;35.20;;;10.83;;
19985;SDS011;10154;52.474;10.768;2022-12-10T00:51:33;37.10;;;11.37;;
19985;SDS011;10154;52.474;10.768;2022-12-10T00:53:58;38.10;;;11.37;;
19985;SDS011;10154;52.474;10.768;2022-12-10T00:56:27;41.23;;;12.60;;
19985;SDS011;10154;52.474;10.768;2022-12-10T00:58:54;42.37;;;11.70;;
19985;SDS011;10154;52.474;10.768;2022-12-10T01:03:47;41.07;;;12.43;;
19985;SDS011;10154;52.474;10.768;2022-12-10T01:06:17;42.40;;;12.93;;
19985;SDS011;10154;52.474;10.768;2022-12-10T01:08:45;36.23;;;11.90;;
19985;SDS011;10154;52.474;10.768;2022-12-10T01:11:12;38.73;;;11.77;;
19985;SDS011;10154;52.474;10.768;2022-12-10T01:13:39;37.93;;;11.63;;
19985;SDS011;10154;52.474;10.768;2022-12-10T01:16:06;36.13;;;11.40;;
19985;SDS011;10154;52.474;10.768;2022-12-10T01:18:32;37.63;;;12.10;;
19985;SDS011;10154;52.474;10.768;2022-12-10T01:21:06;35.00;;;11.70;;
19985;SDS011;10154;52.474;10.768;2022-12-10T01:23:33;42.03;;;13.07;;
19985;SDS011;10154;52.474;10.768;2022-12-10T01:26:01;44.53;;;12.53;;
19985;SDS011;10154;52.474;10.768;2022-12-10T01:28:28;42.03;;;13.23;;
19985;SDS011;10154;52.474;10.768;2022-12-10T01:30:55;41.90;;;12.33;;
19985;SDS011;10154;52.474;10.768;2022-12-10T01:33:20;46.13;;;13.17;;
19985;SDS011;10154;52.474;10.768;2022-12-10T01:35:46;43.50;;;12.20;;
19985;SDS011;10154;52.474;10.768;2022-12-10T01:38:11;42.73;;;13.67;;
19985;SDS011;10154;52.474;10.768;2022-12-10T01:40:38;42.10;;;13.07;;
19985;SDS011;10154;52.474;10.768;2022-12-10T01:43:03;42.47;;;12.77;;
19985;SDS011;10154;52.474;10.768;2022-12-10T01:45:29;46.47;;;13.53;;
19985;SDS011;10154;52.474;10.768;2022-12-10T01:47:54;45.27;;;13.27;;
19985;SDS011;10154;52.474;10.768;2022-12-10T01:50:19;43.10;;;13.60;;
19985;SDS011;10154;52.474;10.768;2022-12-10T01:52:45;43.77;;;12.87;;
19985;SDS011;10154;52.474;10.768;2022-12-10T01:55:36;41.47;;;12.97;;
19985;SDS011;10154;52.474;10.768;2022-12-10T01:58:15;40.27;;;13.13;;
19985;SDS011;10154;52.474;10.768;2022-12-10T02:00:51;38.53;;;13.47;;
19985;SDS011;10154;52.474;10.768;2022-12-10T02:17:41;38.20;;;12.73;;
19985;SDS011;10154;52.474;10.768;2022-12-10T02:23:04;43.10;;;14.20;;
19985;SDS011;10154;52.474;10.768;2022-12-10T02:25:44;40.33;;;12.63;;
19985;SDS011;10154;52.474;10.768;2022-12-10T02:28:18;36.30;;;12.53;;
19985;SDS011;10154;52.474;10.768;2022-12-10T02:30:47;39.03;;;13.13;;
19985;SDS011;10154;52.474;10.768;2022-12-10T02:33:14;43.13;;;14.03;;
19985;SDS011;10154;52.474;10.768;2022-12-10T02:35:39;48.23;;;14.37;;
19985;SDS011;10154;52.474;10.768;2022-12-10T02:38:09;38.43;;;13.70;;
19985;SDS011;10154;52.474;10.768;2022-12-10T02:40:36;42.73;;;14.77;;
19985;SDS011;10154;52.474;10.768;2022-12-10T02:43:03;41.67;;;13.43;;
19985;SDS011;10154;52.474;10.768;2022-12-10T02:45:29;41.43;;;14.13;;
19985;SDS011;10154;52.474;10.768;2022-12-10T02:47:59;48.90;;;15.03;;
19985;SDS011;10154;52.474;10.768;2022-12-10T02:50:25;44.00;;;14.70;;
19985;SDS011;10154;52.474;10.768;2022-12-10T02:52:51;40.50;;;13.73;;
19985;SDS011;10154;52.474;10.768;2022-12-10T02:55:16;48.37;;;15.03;;
19985;SDS011;10154;52.474;10.768;2022-12-10T02:57:50;49.67;;;14.77;;
19985;SDS011;10154;52.474;10.768;2022-12-10T03:00:32;52.57;;;15.67;;
19985;SDS011;10154;52.474;10.768;2022-12-10T03:03:17;45.57;;;15.03;;
19985;SDS011;10154;52.474;10.768;2022-12-10T03:10:55;41.03;;;13.50;;
19985;SDS011;10154;52.474;10.768;2022-12-10T03:13:29;47.90;;;15.03;;
19985;SDS011;10154;52.474;10.768;2022-12-10T03:15:57;41.83;;;13.90;;
19985;SDS011;10154;52.474;10.768;2022-12-10T03:18:24;50.50;;;15.40;;
19985;SDS011;10154;52.474;10.768;2022-12-10T03:20:50;52.77;;;16.63;;
19985;SDS011;10154;52.474;10.768;2022-12-10T03:23:18;49.60;;;14.87;;
19985;SDS011;10154;52.474;10.768;2022-12-10T03:25:44;49.57;;;15.50;;
19985;SDS011;10154;52.474;10.768;2022-12-10T03:28:12;51.67;;;15.70;;
19985;SDS011;10154;52.474;10.768;2022-12-10T03:30:38;53.77;;;15.33;;
19985;SDS011;10154;52.474;10.768;2022-12-10T03:33:04;51.97;;;15.33;;
19985;SDS011;10154;52.474;10.768;2022-12-10T03:35:29;52.93;;;15.53;;
19985;SDS011;10154;52.474;10.768;2022-12-10T03:37:55;48.80;;;15.03;;
19985;SDS011;10154;52.474;10.768;2022-12-10T03:40:22;49.10;;;14.87;;
19985;SDS011;10154;52.474;10.768;2022-12-10T03:42:49;54.33;;;15.80;;
19985;SDS011;10154;52.474;10.768;2022-12-10T03:45:14;56.17;;;15.30;;
19985;SDS011;10154;52.474;10.768;2022-12-10T03:47:42;51.80;;;15.10;;
19985;SDS011;10154;52.474;10.768;2022-12-10T03:50:08;45.60;;;13.97;;
19985;SDS011;10154;52.474;10.768;2022-12-10T03:52:34;55.00;;;15.60;;
19985;SDS011;10154;52.474;10.768;2022-12-10T03:54:59;52.17;;;15.00;;
19985;SDS011;10154;52.474;10.768;2022-12-10T03:57:25;51.03;;;15.40;;
19985;SDS011;10154;52.474;10.768;2022-12-10T03:59:50;52.07;;;16.10;;
19985;SDS011;10154;52.474;10.768;2022-12-10T04:02:15;52.93;;;15.07;;
19985;SDS011;10154;52.474;10.768;2022-12-10T04:04:41;54.13;;;15.00;;
19985;SDS011;10154;52.474;10.768;2022-12-10T04:07:06;53.00;;;15.47;;
19985;SDS011;10154;52.474;10.768;2022-12-10T04:09:32;59.53;;;16.60;;
19985;SDS011;10154;52.474;10.768;2022-12-10T04:11:58;48.37;;;14.57;;
19985;SDS011;10154;52.474;10.768;2022-12-10T04:14:24;47.30;;;14.53;;
19985;SDS011;10154;52.474;10.768;2022-12-10T04:17:08;47.47;;;13.93;;
19985;SDS011;10154;52.474;10.768;2022-12-10T04:19:34;45.90;;;13.20;;
19985;SDS011;10154;52.474;10.768;2022-12-10T04:21:59;56.67;;;15.70;;
19985;SDS011;10154;52.474;10.768;2022-12-10T04:24:44;50.30;;;15.30;;
19985;SDS011;10154;52.474;10.768;2022-12-10T04:27:37;44.90;;;13.63;;
19985;SDS011;10154;52.474;10.768;2022-12-10T04:30:04;45.50;;;13.70;;
19985;SDS011;10154;52.474;10.768;2022-12-10T04:32:32;45.80;;;14.00;;
19985;SDS011;10154;52.474;10.768;2022-12-10T04:34:57;42.83;;;13.27;;
19985;SDS011;10154;52.474;10.768;2022-12-10T04:37:23;53.73;;;15.63;;
19985;SDS011;10154;52.474;10.768;2022-12-10T04:39:51;49.13;;;14.20;;
19985;SDS011;10154;52.474;10.768;2022-12-10T04:42:17;42.57;;;13.80;;
19985;SDS011;10154;52.474;10.768;2022-12-10T04:44:43;48.37;;;13.20;;
19985;SDS011;10154;52.474;10.768;2022-12-10T04:47:08;44.37;;;14.00;;
19985;SDS011;10154;52.474;10.768;2022-12-10T04:49:35;40.93;;;12.90;;
19985;SDS011;10154;52.474;10.768;2022-12-10T04:52:00;43.53;;;12.87;;
19985;SDS011;10154;52.474;10.768;2022-12-10T04:54:26;44.93;;;12.40;;
19985;SDS011;10154;52.474;10.768;2022-12-10T04:56:54;41.53;;;13.20;;
19985;SDS011;10154;52.474;10.768;2022-12-10T04:59:20;42.17;;;13.20;;
19985;SDS011;10154;52.474;10.768;2022-12-10T05:01:46;50.70;;;14.20;;
19985;SDS011;10154;52.474;10.768;2022-12-10T05:04:12;47.87;;;14.40;;
19985;SDS011;10154;52.474;10.768;2022-12-10T05:06:39;50.03;;;14.77;;
19985;SDS011;10154;52.474;10.768;2022-12-10T05:09:04;37.00;;;12.50;;
19985;SDS011;10154;52.474;10.768;2022-12-10T05:11:31;36.93;;;11.87;;
19985;SDS011;10154;52.474;10.768;2022-12-10T05:14:00;42.47;;;12.60;;
19985;SDS011;10154;52.474;10.768;2022-12-10T05:16:27;39.40;;;12.90;;
19985;SDS011;10154;52.474;10.768;2022-12-10T05:18:54;34.80;;;12.07;;
19985;SDS011;10154;52.474;10.768;2022-12-10T05:21:20;35.87;;;12.30;;
19985;SDS011;10154;52.474;10.768;2022-12-10T05:23:47;36.70;;;12.43;;
19985;SDS011;10154;52.474;10.768;2022-12-10T05:26:15;35.00;;;12.43;;
19985;SDS011;10154;52.474;10.768;2022-12-10T05:28:47;39.53;;;13.33;;
19985;SDS011;10154;52.474;10.768;2022-12-10T05:31:15;42.37;;;13.53;;
19985;SDS011;10154;52.474;10.768;2022-12-10T05:33:43;44.03;;;14.10;;
19985;SDS011;10154;52.474;10.768;2022-12-10T05:36:09;45.50;;;14.10;;
19985;SDS011;10154;52.474;10.768;2022-12-10T05:38:36;45.13;;;14.20;;
19985;SDS011;10154;52.474;10.768;2022-12-10T05:41:02;41.40;;;13.30;;
19985;SDS011;10154;52.474;10.768;2022-12-10T05:43:29;42.50;;;14.10;;
19985;SDS011;10154;52.474;10.768;2022-12-10T05:45:58;42.50;;;13.83;;
19985;SDS011;10154;52.474;10.768;2022-12-10T05:48:24;39.93;;;13.20;;
19985;SDS011;10154;52.474;10.768;2022-12-10T05:50:49;43.03;;;13.87;;
19985;SDS011;10154;52.474;10.768;2022-12-10T05:53:15;44.27;;;13.83;;
19985;SDS011;10154;52.474;10.768;2022-12-10T05:55:42;40.33;;;14.57;;
19985;SDS011;10154;52.474;10.768;2022-12-10T05:58:07;41.57;;;13.20;;
19985;SDS011;10154;52.474;10.768;2022-12-10T06:00:33;43.43;;;14.37;;
19985;SDS011;10154;52.474;10.768;2022-12-10T06:02:58;42.13;;;13.07;;
19985;SDS011;10154;52.474;10.768;2022-12-10T06:05:24;43.27;;;13.93;;
19985;SDS011;10154;52.474;10.768;2022-12-10T06:07:49;46.80;;;14.00;;
19985;SDS011;10154;52.474;10.768;2022-12-10T06:10:14;39.73;;;12.87;;
19985;SDS011;10154;52.474;10.768;2022-12-10T06:12:40;41.90;;;12.60;;
19985;SDS011;10154;52.474;10.768;2022-12-10T06:15:05;38.93;;;11.87;;
19985;SDS011;10154;52.474;10.768;2022-12-10T06:17:31;38.37;;;11.97;;
19985;SDS011;10154;52.474;10.768;2022-12-10T06:19:57;44.33;;;13.10;;
19985;SDS011;10154;52.474;10.768;2022-12-10T06:22:22;48.80;;;14.37;;
19985;SDS011;10154;52.474;10.768;2022-12-10T06:24:48;37.23;;;12.07;;
19985;SDS011;10154;52.474;10.768;2022-12-10T06:27:13;36.23;;;11.37;;
19985;SDS011;10154;52.474;10.768;2022-12-10T06:29:38;39.97;;;12.17;;
19985;SDS011;10154;52.474;10.768;2022-12-10T06:32:04;40.57;;;12.77;;
19985;SDS011;10154;52.474;10.768;2022-12-10T06:34:29;39.57;;;12.53;;
19985;SDS011;10154;52.474;10.768;2022-12-10T06:36:54;44.07;;;13.73;;
19985;SDS011;10154;52.474;10.768;2022-12-10T06:39:20;37.23;;;11.47;;
19985;SDS011;10154;52.474;10.768;2022-12-10T06:41:45;34.93;;;12.13;;
19985;SDS011;10154;52.474;10.768;2022-12-10T06:44:11;41.57;;;12.03;;
19985;SDS011;10154;52.474;10.768;2022-12-10T06:46:36;42.67;;;13.43;;
19985;SDS011;10154;52.474;10.768;2022-12-10T06:49:02;38.13;;;11.93;;
19985;SDS011;10154;52.474;10.768;2022-12-10T06:51:28;35.53;;;11.97;;
19985;SDS011;10154;52.474;10.768;2022-12-10T06:53:54;34.10;;;11.33;;
19985;SDS011;10154;52.474;10.768;2022-12-10T06:56:20;37.23;;;12.20;;
19985;SDS011;10154;52.474;10.768;2022-12-10T06:58:45;40.03;;;12.77;;
19985;SDS011;10154;52.474;10.768;2022-12-10T07:01:16;39.53;;;12.67;;
19985;SDS011;10154;52.474;10.768;2022-12-10T07:03:49;39.90;;;12.20;;
19985;SDS011;10154;52.474;10.768;2022-12-10T07:06:17;41.17;;;12.47;;
19985;SDS011;10154;52.474;10.768;2022-12-10T07:08:44;40.27;;;12.47;;
19985;SDS011;10154;52.474;10.768;2022-12-10T07:11:13;42.40;;;14.20;;
19985;SDS011;10154;52.474;10.768;2022-12-10T07:13:41;46.07;;;13.37;;
19985;SDS011;10154;52.474;10.768;2022-12-10T07:18:42;41.63;;;13.50;;
19985;SDS011;10154;52.474;10.768;2022-12-10T07:21:14;45.20;;;14.23;;
19985;SDS011;10154;52.474;10.768;2022-12-10T07:23:41;47.43;;;15.00;;
19985;SDS011;10154;52.474;10.768;2022-12-10T07:26:06;43.20;;;13.53;;
19985;SDS011;10154;52.474;10.768;2022-12-10T07:28:32;45.13;;;13.77;;
19985;SDS011;10154;52.474;10.768;2022-12-10T07:31:04;43.63;;;13.40;;
19985;SDS011;10154;52.474;10.768;2022-12-10T07:33:32;48.33;;;14.47;;
19985;SDS011;10154;52.474;10.768;2022-12-10T07:35:58;45.90;;;14.67;;
19985;SDS011;10154;52.474;10.768;2022-12-10T07:38:23;42.47;;;13.93;;
19985;SDS011;10154;52.474;10.768;2022-12-10T07:40:49;51.20;;;15.13;;
19985;SDS011;10154;52.474;10.768;2022-12-10T07:43:15;45.77;;;13.07;;
19985;SDS011;10154;52.474;10.768;2022-12-10T07:45:40;43.47;;;12.87;;
19985;SDS011;10154;52.474;10.768;2022-12-10T07:48:06;51.73;;;13.90;;
19985;SDS011;10154;52.474;10.768;2022-12-10T07:50:31;52.33;;;13.90;;
19985;SDS011;10154;52.474;10.768;2022-12-10T07:52:56;48.37;;;13.70;;
19985;SDS011;10154;52.474;10.768;2022-12-10T07:55:22;43.00;;;13.13;;
19985;SDS011;10154;52.474;10.768;2022-12-10T07:57:47;50.87;;;14.90;;
19985;SDS011;10154;52.474;10.768;2022-12-10T08:00:13;46.83;;;14.90;;
19985;SDS011;10154;52.474;10.768;2022-12-10T08:02:38;44.00;;;14.13;;
19985;SDS011;10154;52.474;10.768;2022-12-10T08:05:04;48.67;;;16.07;;
19985;SDS011;10154;52.474;10.768;2022-12-10T08:07:30;47.87;;;14.90;;
19985;SDS011;10154;52.474;10.768;2022-12-10T08:09:55;48.37;;;14.33;;
19985;SDS011;10154;52.474;10.768;2022-12-10T08:12:21;47.10;;;13.00;;
19985;SDS011;10154;52.474;10.768;2022-12-10T08:14:49;43.03;;;13.27;;
19985;SDS011;10154;52.474;10.768;2022-12-10T08:17:15;43.20;;;13.43;;
19985;SDS011;10154;52.474;10.768;2022-12-10T08:19:41;51.90;;;14.47;;
19985;SDS011;10154;52.474;10.768;2022-12-10T08:22:06;46.93;;;12.93;;
19985;SDS011;10154;52.474;10.768;2022-12-10T08:24:32;44.60;;;13.77;;
19985;SDS011;10154;52.474;10.768;2022-12-10T08:26:57;51.23;;;13.97;;
19985;SDS011;10154;52.474;10.768;2022-12-10T08:29:23;44.80;;;13.50;;
19985;SDS011;10154;52.474;10.768;2022-12-10T08:31:48;43.83;;;14.17;;
19985;SDS011;10154;52.474;10.768;2022-12-10T08:34:15;53.77;;;14.87;;
19985;SDS011;10154;52.474;10.768;2022-12-10T08:36:44;46.67;;;13.57;;
19985;SDS011;10154;52.474;10.768;2022-12-10T08:39:10;51.03;;;14.07;;
19985;SDS011;10154;52.474;10.768;2022-12-10T08:41:42;43.43;;;13.63;;
19985;SDS011;10154;52.474;10.768;2022-12-10T08:44:13;48.27;;;14.83;;
19985;SDS011;10154;52.474;10.768;2022-12-10T08:46:39;46.43;;;13.93;;
19985;SDS011;10154;52.474;10.768;2022-12-10T08:49:04;46.07;;;14.50;;
19985;SDS011;10154;52.474;10.768;2022-12-10T08:51:31;44.63;;;13.10;;
19985;SDS011;10154;52.474;10.768;2022-12-10T08:53:57;43.20;;;13.23;;
19985;SDS011;10154;52.474;10.768;2022-12-10T08:56:23;43.00;;;13.30;;
19985;SDS011;10154;52.474;10.768;2022-12-10T08:58:48;46.97;;;14.13;;
19985;SDS011;10154;52.474;10.768;2022-12-10T09:01:15;48.07;;;14.73;;
19985;SDS011;10154;52.474;10.768;2022-12-10T09:03:42;38.00;;;12.37;;
19985;SDS011;10154;52.474;10.768;2022-12-10T09:06:09;43.20;;;12.67;;
19985;SDS011;10154;52.474;10.768;2022-12-10T09:08:36;40.33;;;11.90;;
19985;SDS011;10154;52.474;10.768;2022-12-10T09:11:08;33.60;;;11.97;;
19985;SDS011;10154;52.474;10.768;2022-12-10T09:13:39;38.83;;;12.23;;
19985;SDS011;10154;52.474;10.768;2022-12-10T09:16:04;32.40;;;11.37;;
19985;SDS011;10154;52.474;10.768;2022-12-10T09:18:30;35.77;;;12.23;;
19985;SDS011;10154;52.474;10.768;2022-12-10T09:20:56;43.30;;;13.30;;
19985;SDS011;10154;52.474;10.768;2022-12-10T09:23:21;40.70;;;12.50;;
19985;SDS011;10154;52.474;10.768;2022-12-10T09:25:47;36.20;;;11.60;;
19985;SDS011;10154;52.474;10.768;2022-12-10T09:28:12;38.20;;;11.73;;
19985;SDS011;10154;52.474;10.768;2022-12-10T09:30:37;38.03;;;12.63;;
19985;SDS011;10154;52.474;10.768;2022-12-10T09:33:03;40.30;;;12.87;;
19985;SDS011;10154;52.474;10.768;2022-12-10T09:35:29;44.83;;;14.07;;
19985;SDS011;10154;52.474;10.768;2022-12-10T09:37:54;49.50;;;13.83;;
19985;SDS011;10154;52.474;10.768;2022-12-10T09:40:23;37.40;;;12.43;;
19985;SDS011;10154;52.474;10.768;2022-12-10T09:43:12;42.00;;;12.93;;
19985;SDS011;10154;52.474;10.768;2022-12-10T09:50:59;37.37;;;11.80;;
19985;SDS011;10154;52.474;10.768;2022-12-10T09:53:28;37.63;;;12.00;;
19985;SDS011;10154;52.474;10.768;2022-12-10T09:55:55;35.00;;;11.73;;
19985;SDS011;10154;52.474;10.768;2022-12-10T09:58:24;37.53;;;12.07;;
19985;SDS011;10154;52.474;10.768;2022-12-10T10:00:51;40.53;;;13.17;;
19985;SDS011;10154;52.474;10.768;2022-12-10T10:03:21;38.60;;;14.43;;
19985;SDS011;10154;52.474;10.768;2022-12-10T10:05:47;34.43;;;12.70;;
19985;SDS011;10154;52.474;10.768;2022-12-10T10:10:53;38.60;;;13.17;;
19985;SDS011;10154;52.474;10.768;2022-12-10T10:18:46;29.07;;;11.43;;
19985;SDS011;10154;52.474;10.768;2022-12-10T10:21:23;34.60;;;12.53;;
19985;SDS011;10154;52.474;10.768;2022-12-10T10:23:53;28.00;;;11.37;;
19985;SDS011;10154;52.474;10.768;2022-12-10T10:26:19;28.73;;;11.20;;
19985;SDS011;10154;52.474;10.768;2022-12-10T10:28:44;29.37;;;11.33;;
19985;SDS011;10154;52.474;10.768;2022-12-10T10:31:32;31.77;;;11.50;;
19985;SDS011;10154;52.474;10.768;2022-12-10T10:33:59;30.40;;;11.43;;
19985;SDS011;10154;52.474;10.768;2022-12-10T10:36:30;32.00;;;11.87;;
19985;SDS011;10154;52.474;10.768;2022-12-10T10:39:07;24.80;;;10.47;;
19985;SDS011;10154;52.474;10.768;2022-12-10T10:41:35;29.30;;;11.60;;
19985;SDS011;10154;52.474;10.768;2022-12-10T10:44:05;28.97;;;11.27;;
19985;SDS011;10154;52.474;10.768;2022-12-10T10:46:47;27.80;;;11.13;;
19985;SDS011;10154;52.474;10.768;2022-12-10T10:49:19;32.47;;;12.80;;
19985;SDS011;10154;52.474;10.768;2022-12-10T10:51:48;27.67;;;12.10;;
19985;SDS011;10154;52.474;10.768;2022-12-10T11:00:02;25.33;;;10.77;;
19985;SDS011;10154;52.474;10.768;2022-12-10T11:02:30;22.73;;;10.37;;
19985;SDS011;10154;52.474;10.768;2022-12-10T11:05:05;23.53;;;9.90;;
19985;SDS011;10154;52.474;10.768;2022-12-10T11:07:34;30.90;;;10.90;;
19985;SDS011;10154;52.474;10.768;2022-12-10T11:10:12;24.63;;;10.70;;
19985;SDS011;10154;52.474;10.768;2022-12-10T11:12:46;22.90;;;10.43;;
19985;SDS011;10154;52.474;10.768;2022-12-10T11:17:47;26.53;;;10.73;;
19985;SDS011;10154;52.474;10.768;2022-12-10T11:20:18;23.70;;;10.70;;
19985;SDS011;10154;52.474;10.768;2022-12-10T11:23:00;25.90;;;11.23;;
19985;SDS011;10154;52.474;10.768;2022-12-10T11:28:33;23.07;;;9.80;;
19985;SDS011;10154;52.474;10.768;2022-12-10T11:31:10;26.20;;;11.17;;
19985;SDS011;10154;52.474;10.768;2022-12-10T11:39:02;25.30;;;10.63;;
19985;SDS011;10154;52.474;10.768;2022-12-10T11:50:03;27.97;;;11.87;;
19985;SDS011;10154;52.474;10.768;2022-12-10T11:52:47;27.13;;;10.97;;
19985;SDS011;10154;52.474;10.768;2022-12-10T12:08:56;26.37;;;11.27;;
19985;SDS011;10154;52.474;10.768;2022-12-10T12:17:04;26.00;;;10.60;;
19985;SDS011;10154;52.474;10.768;2022-12-10T12:19:39;21.30;;;9.83;;
19985;SDS011;10154;52.474;10.768;2022-12-10T12:22:16;23.73;;;10.07;;
19985;SDS011;10154;52.474;10.768;2022-12-10T12:24:48;23.50;;;9.50;;
19985;SDS011;10154;52.474;10.768;2022-12-10T12:27:25;21.43;;;9.33;;
19985;SDS011;10154;52.474;10.768;2022-12-10T12:38:00;21.50;;;7.97;;
19985;SDS011;10154;52.474;10.768;2022-12-10T12:41:15;19.30;;;9.03;;
19985;SDS011;10154;52.474;10.768;2022-12-10T12:46:02;20.20;;;8.70;;
19985;SDS011;10154;52.474;10.768;2022-12-10T12:51:04;16.90;;;8.07;;
19985;SDS011;10154;52.474;10.768;2022-12-10T12:53:31;17.70;;;7.93;;
19985;SDS011;10154;52.474;10.768;2022-12-10T12:58:36;17.67;;;8.33;;
19985;SDS011;10154;52.474;10.768;2022-12-10T13:01:10;18.73;;;7.97;;
19985;SDS011;10154;52.474;10.768;2022-12-10T13:03:41;17.13;;;7.63;;
19985;SDS011;10154;52.474;10.768;2022-12-10T13:08:47;18.33;;;8.33;;
19985;SDS011;10154;52.474;10.768;2022-12-10T13:11:27;19.17;;;8.67;;
19985;SDS011;10154;52.474;10.768;2022-12-10T13:27:03;20.53;;;9.03;;
19985;SDS011;10154;52.474;10.768;2022-12-10T13:37:33;24.07;;;11.00;;
19985;SDS011;10154;52.474;10.768;2022-12-10T13:40:42;31.97;;;11.73;;
19985;SDS011;10154;52.474;10.768;2022-12-10T13:49:02;28.33;;;11.90;;
19985;SDS011;10154;52.474;10.768;2022-12-10T13:56:53;26.60;;;10.93;;
19985;SDS011;10154;52.474;10.768;2022-12-10T13:59:43;25.20;;;10.20;;
19985;SDS011;10154;52.474;10.768;2022-12-10T14:07:37;28.57;;;12.53;;
19985;SDS011;10154;52.474;10.768;2022-12-10T14:10:03;28.07;;;12.10;;
19985;SDS011;10154;52.474;10.768;2022-12-10T14:12:30;23.87;;;10.07;;
19985;SDS011;10154;52.474;10.768;2022-12-10T14:15:01;26.53;;;11.80;;
19985;SDS011;10154;52.474;10.768;2022-12-10T14:17:31;24.77;;;10.63;;
19985;SDS011;10154;52.474;10.768;2022-12-10T14:19:58;26.20;;;10.70;;
19985;SDS011;10154;52.474;10.768;2022-12-10T14:22:30;26.37;;;10.27;;
19985;SDS011;10154;52.474;10.768;2022-12-10T14:24:59;27.80;;;10.93;;
19985;SDS011;10154;52.474;10.768;2022-12-10T14:27:26;27.57;;;10.90;;
19985;SDS011;10154;52.474;10.768;2022-12-10T14:30:02;26.50;;;10.90;;
19985;SDS011;10154;52.474;10.768;2022-12-10T14:32:46;21.43;;;9.17;;
19985;SDS011;10154;52.474;10.768;2022-12-10T14:35:15;25.20;;;9.77;;
19985;SDS011;10154;52.474;10.768;2022-12-10T14:37:43;23.97;;;10.27;;
19985;SDS011;10154;52.474;10.768;2022-12-10T14:40:09;21.83;;;9.40;;
19985;SDS011;10154;52.474;10.768;2022-12-10T14:42:46;23.90;;;10.73;;
19985;SDS011;10154;52.474;10.768;2022-12-10T14:45:13;24.17;;;10.10;;
19985;SDS011;10154;52.474;10.768;2022-12-10T14:47:40;20.90;;;9.07;;
19985;SDS011;10154;52.474;10.768;2022-12-10T14:50:06;23.33;;;9.87;;
19985;SDS011;10154;52.474;10.768;2022-12-10T14:52:40;21.87;;;9.13;;
19985;SDS011;10154;52.474;10.768;2022-12-10T14:55:13;22.67;;;9.27;;
19985;SDS011;10154;52.474;10.768;2022-12-10T14:57:42;21.03;;;9.10;;
19985;SDS011;10154;52.474;10.768;2022-12-10T15:00:15;22.70;;;9.23;;
19985;SDS011;10154;52.474;10.768;2022-12-10T15:02:47;23.90;;;9.57;;
19985;SDS011;10154;52.474;10.768;2022-12-10T15:05:20;22.87;;;9.67;;
19985;SDS011;10154;52.474;10.768;2022-12-10T15:08:06;22.73;;;9.50;;
19985;SDS011;10154;52.474;10.768;2022-12-10T15:10:37;23.33;;;9.67;;
19985;SDS011;10154;52.474;10.768;2022-12-10T15:13:05;21.20;;;9.70;;
19985;SDS011;10154;52.474;10.768;2022-12-10T15:15:36;22.37;;;9.37;;
19985;SDS011;10154;52.474;10.768;2022-12-10T15:25:49;32.07;;;11.67;;
19985;SDS011;10154;52.474;10.768;2022-12-10T15:28:24;29.70;;;11.87;;
19985;SDS011;10154;52.474;10.768;2022-12-10T15:30:51;24.30;;;10.37;;
19985;SDS011;10154;52.474;10.768;2022-12-10T15:33:32;27.30;;;10.73;;
19985;SDS011;10154;52.474;10.768;2022-12-10T15:36:01;27.67;;;9.33;;
19985;SDS011;10154;52.474;10.768;2022-12-10T15:38:27;29.13;;;10.97;;
19985;SDS011;10154;52.474;10.768;2022-12-10T15:40:56;30.63;;;11.10;;
19985;SDS011;10154;52.474;10.768;2022-12-10T15:43:55;30.17;;;11.70;;
19985;SDS011;10154;52.474;10.768;2022-12-10T15:46:23;26.50;;;10.40;;
19985;SDS011;10154;52.474;10.768;2022-12-10T15:48:49;32.93;;;10.73;;
19985;SDS011;10154;52.474;10.768;2022-12-10T15:51:14;31.07;;;12.57;;
19985;SDS011;10154;52.474;10.768;2022-12-10T15:53:39;27.13;;;10.87;;
19985;SDS011;10154;52.474;10.768;2022-12-10T15:56:05;31.17;;;11.87;;
19985;SDS011;10154;52.474;10.768;2022-12-10T15:58:31;26.70;;;10.13;;
19985;SDS011;10154;52.474;10.768;2022-12-10T16:00:56;27.67;;;10.57;;
19985;SDS011;10154;52.474;10.768;2022-12-10T16:03:21;29.80;;;10.53;;
19985;SDS011;10154;52.474;10.768;2022-12-10T16:05:48;29.53;;;10.20;;
19985;SDS011;10154;52.474;10.768;2022-12-10T16:08:21;25.77;;;10.00;;
19985;SDS011;10154;52.474;10.768;2022-12-10T16:10:48;26.97;;;10.20;;
19985;SDS011;10154;52.474;10.768;2022-12-10T16:15:51;28.27;;;10.30;;
19985;SDS011;10154;52.474;10.768;2022-12-10T16:18:18;27.00;;;10.03;;
19985;SDS011;10154;52.474;10.768;2022-12-10T16:20:44;26.93;;;10.23;;
19985;SDS011;10154;52.474;10.768;2022-12-10T16:23:09;29.37;;;10.73;;
19985;SDS011;10154;52.474;10.768;2022-12-10T16:25:35;25.70;;;9.80;;
19985;SDS011;10154;52.474;10.768;2022-12-10T16:28:02;26.73;;;10.10;;
19985;SDS011;10154;52.474;10.768;2022-12-10T16:30:31;26.67;;;10.10;;
19985;SDS011;10154;52.474;10.768;2022-12-10T16:33:00;27.63;;;10.73;;
19985;SDS011;10154;52.474;10.768;2022-12-10T16:35:26;28.27;;;11.00;;
19985;SDS011;10154;52.474;10.768;2022-12-10T16:37:52;28.53;;;10.97;;
19985;SDS011;10154;52.474;10.768;2022-12-10T16:40:22;26.80;;;10.77;;
19985;SDS011;10154;52.474;10.768;2022-12-10T16:42:48;23.63;;;10.17;;
19985;SDS011;10154;52.474;10.768;2022-12-10T16:45:17;25.90;;;10.00;;
19985;SDS011;10154;52.474;10.768;2022-12-10T16:47:44;30.57;;;11.03;;
19985;SDS011;10154;52.474;10.768;2022-12-10T16:50:12;25.17;;;10.30;;
19985;SDS011;10154;52.474;10.768;2022-12-10T16:52:38;22.87;;;9.63;;
19985;SDS011;10154;52.474;10.768;2022-12-10T16:55:04;24.57;;;9.07;;
19985;SDS011;10154;52.474;10.768;2022-12-10T16:57:30;27.23;;;10.47;;